sensor_id;sensor_type;location;lat;lon;timestamp;pressure;altitude;pressure_sealevel;temperature;humidity
63493;BME280;49638;47.526;10.028;2023-08-17T00:02:08;91910.44;;;19.65;80.81
63493;BME280;49638;47.526;10.028;2023-08-17T00:05:08;91917.13;;;19.62;81.20
63493;BME280;49638;47.526;10.028;2023-08-17T00:08:09;91895.84;;;19.52;81.37
63493;BME280;49638;47.526;10.028;2023-08-17T00:11:09;91905.22;;;19.54;81.61
63493;BME280;49638;47.526;10.028;2023-08-17T00:14:09;91908.78;;;19.50;81.83
63493;BME280;49638;47.526;10.028;2023-08-17T00:17:10;91908.78;;;19.50;81.87
63493;BME280;49638;47.526;10.028;2023-08-17T00:20:10;91897.31;;;19.44;81.88
63493;BME280;49638;47.526;10.028;2023-08-17T00:23:11;91904.56;;;19.44;81.79
63493;BME280;49638;47.526;10.028;2023-08-17T00:26:11;91911.22;;;19.46;81.82
63493;BME280;49638;47.526;10.028;2023-08-17T00:29:11;91899.06;;;19.35;82.08
63493;BME280;49638;47.526;10.028;2023-08-17T00:32:12;91909.00;;;19.34;82.38
63493;BME280;49638;47.526;10.028;2023-08-17T00:35:12;91903.72;;;19.29;82.77
63493;BME280;49638;47.526;10.028;2023-08-17T00:38:12;91896.97;;;19.32;82.33
63493;BME280;49638;47.526;10.028;2023-08-17T00:41:13;91906.53;;;19.38;82.11
63493;BME280;49638;47.526;10.028;2023-08-17T00:44:13;91911.09;;;19.37;82.46
63493;BME280;49638;47.526;10.028;2023-08-17T00:47:13;91908.47;;;19.32;82.43
63493;BME280;49638;47.526;10.028;2023-08-17T00:50:14;91905.00;;;19.32;82.37
63493;BME280;49638;47.526;10.028;2023-08-17T00:53:16;91904.78;;;19.28;82.30
63493;BME280;49638;47.526;10.028;2023-08-17T00:56:16;91905.25;;;19.17;82.76
63493;BME280;49638;47.526;10.028;2023-08-17T00:59:17;91894.91;;;19.10;83.00
63493;BME280;49638;47.526;10.028;2023-08-17T01:02:18;91900.09;;;19.01;83.15
63493;BME280;49638;47.526;10.028;2023-08-17T01:05:18;91906.56;;;19.00;83.28
63493;BME280;49638;47.526;10.028;2023-08-17T01:08:18;91908.72;;;18.98;83.40
63493;BME280;49638;47.526;10.028;2023-08-17T01:14:35;91902.00;;;19.01;84.27
63493;BME280;49638;47.526;10.028;2023-08-17T01:17:42;91897.41;;;19.01;83.56
63493;BME280;49638;47.526;10.028;2023-08-17T01:20:44;91882.75;;;18.99;83.33
63493;BME280;49638;47.526;10.028;2023-08-17T01:23:45;91887.28;;;18.98;83.60
63493;BME280;49638;47.526;10.028;2023-08-17T01:26:46;91896.41;;;18.97;83.60
63493;BME280;49638;47.526;10.028;2023-08-17T01:29:46;91902.50;;;19.03;83.42
63493;BME280;49638;47.526;10.028;2023-08-17T01:33:08;91903.88;;;19.00;84.37
63493;BME280;49638;47.526;10.028;2023-08-17T01:36:19;91897.50;;;18.96;83.95
63493;BME280;49638;47.526;10.028;2023-08-17T01:39:23;91896.63;;;19.01;83.58
63493;BME280;49638;47.526;10.028;2023-08-17T01:42:27;91894.25;;;18.99;83.60
63493;BME280;49638;47.526;10.028;2023-08-17T01:45:28;91901.78;;;18.97;83.74
63493;BME280;49638;47.526;10.028;2023-08-17T01:48:28;91895.97;;;18.90;83.63
63493;BME280;49638;47.526;10.028;2023-08-17T01:51:28;91890.31;;;18.91;83.34
63493;BME280;49638;47.526;10.028;2023-08-17T01:54:29;91886.63;;;18.87;83.33
63493;BME280;49638;47.526;10.028;2023-08-17T01:57:29;91892.00;;;18.87;83.38
63493;BME280;49638;47.526;10.028;2023-08-17T02:00:29;91895.97;;;18.90;83.53
63493;BME280;49638;47.526;10.028;2023-08-17T02:03:29;91900.03;;;18.87;83.50
63493;BME280;49638;47.526;10.028;2023-08-17T02:06:30;91897.78;;;18.76;83.76
63493;BME280;49638;47.526;10.028;2023-08-17T02:09:30;91889.56;;;18.67;83.74
63493;BME280;49638;47.526;10.028;2023-08-17T02:12:30;91891.75;;;18.65;83.82
63493;BME280;49638;47.526;10.028;2023-08-17T02:15:31;91892.81;;;18.64;83.73
63493;BME280;49638;47.526;10.028;2023-08-17T02:18:31;91890.13;;;18.64;83.74
63493;BME280;49638;47.526;10.028;2023-08-17T02:21:33;91883.25;;;18.58;83.92
63493;BME280;49638;47.526;10.028;2023-08-17T02:24:33;91881.66;;;18.57;83.58
63493;BME280;49638;47.526;10.028;2023-08-17T02:27:34;91879.22;;;18.60;83.66
63493;BME280;49638;47.526;10.028;2023-08-17T02:30:34;91886.66;;;18.63;83.63
63493;BME280;49638;47.526;10.028;2023-08-17T02:33:34;91886.00;;;18.53;83.69
63493;BME280;49638;47.526;10.028;2023-08-17T02:36:37;91882.00;;;18.31;84.02
63493;BME280;49638;47.526;10.028;2023-08-17T02:39:37;91877.59;;;18.16;84.25
63493;BME280;49638;47.526;10.028;2023-08-17T02:42:37;91868.09;;;18.05;84.35
63493;BME280;49638;47.526;10.028;2023-08-17T02:45:39;91875.25;;;18.10;84.57
63493;BME280;49638;47.526;10.028;2023-08-17T02:48:40;91870.81;;;18.00;84.45
63493;BME280;49638;47.526;10.028;2023-08-17T02:51:40;91876.69;;;18.02;84.57
63493;BME280;49638;47.526;10.028;2023-08-17T02:54:40;91874.88;;;17.98;84.49
63493;BME280;49638;47.526;10.028;2023-08-17T02:57:40;91865.66;;;17.85;84.65
63493;BME280;49638;47.526;10.028;2023-08-17T03:00:41;91874.91;;;17.92;85.12
63493;BME280;49638;47.526;10.028;2023-08-17T03:03:41;91870.09;;;17.94;84.85
63493;BME280;49638;47.526;10.028;2023-08-17T03:06:42;91866.91;;;17.92;84.90
63493;BME280;49638;47.526;10.028;2023-08-17T03:09:42;91870.94;;;17.90;84.81
63493;BME280;49638;47.526;10.028;2023-08-17T03:12:42;91875.47;;;17.89;84.78
63493;BME280;49638;47.526;10.028;2023-08-17T03:15:43;91881.91;;;17.88;84.87
63493;BME280;49638;47.526;10.028;2023-08-17T03:18:43;91872.66;;;17.81;84.66
63493;BME280;49638;47.526;10.028;2023-08-17T03:21:43;91881.38;;;17.86;84.89
63493;BME280;49638;47.526;10.028;2023-08-17T03:24:43;91871.03;;;17.80;84.67
63493;BME280;49638;47.526;10.028;2023-08-17T03:27:44;91877.19;;;17.80;84.47
63493;BME280;49638;47.526;10.028;2023-08-17T03:30:44;91883.81;;;17.88;84.27
63493;BME280;49638;47.526;10.028;2023-08-17T03:33:44;91877.94;;;17.86;84.08
63493;BME280;49638;47.526;10.028;2023-08-17T03:36:44;91864.91;;;17.79;84.15
63493;BME280;49638;47.526;10.028;2023-08-17T03:39:45;91873.97;;;17.83;84.26
63493;BME280;49638;47.526;10.028;2023-08-17T03:42:45;91875.88;;;17.78;84.55
63493;BME280;49638;47.526;10.028;2023-08-17T03:45:45;91882.03;;;17.78;84.37
63493;BME280;49638;47.526;10.028;2023-08-17T03:48:45;91880.66;;;17.76;84.60
63493;BME280;49638;47.526;10.028;2023-08-17T03:51:46;91882.81;;;17.79;84.75
63493;BME280;49638;47.526;10.028;2023-08-17T03:54:46;91883.59;;;17.79;84.75
63493;BME280;49638;47.526;10.028;2023-08-17T03:57:46;91888.16;;;17.79;84.61
63493;BME280;49638;47.526;10.028;2023-08-17T04:00:50;91891.84;;;17.83;84.64
63493;BME280;49638;47.526;10.028;2023-08-17T04:03:51;91885.22;;;17.80;84.52
63493;BME280;49638;47.526;10.028;2023-08-17T04:06:51;91891.38;;;17.81;84.22
63493;BME280;49638;47.526;10.028;2023-08-17T04:09:51;91893.75;;;17.82;84.08
63493;BME280;49638;47.526;10.028;2023-08-17T04:12:52;91897.00;;;17.74;83.85
63493;BME280;49638;47.526;10.028;2023-08-17T04:15:52;91901.25;;;17.75;83.73
63493;BME280;49638;47.526;10.028;2023-08-17T04:18:53;91901.88;;;17.67;84.17
63493;BME280;49638;47.526;10.028;2023-08-17T04:21:53;91901.91;;;17.62;84.26
63493;BME280;49638;47.526;10.028;2023-08-17T04:24:53;91898.22;;;17.58;84.39
63493;BME280;49638;47.526;10.028;2023-08-17T04:27:54;91896.63;;;17.57;84.53
63493;BME280;49638;47.526;10.028;2023-08-17T04:30:54;91898.22;;;17.58;84.52
63493;BME280;49638;47.526;10.028;2023-08-17T04:33:54;91899.31;;;17.57;84.43
63493;BME280;49638;47.526;10.028;2023-08-17T04:36:54;91885.72;;;17.53;84.33
63493;BME280;49638;47.526;10.028;2023-08-17T04:39:55;91897.13;;;17.59;84.44
63493;BME280;49638;47.526;10.028;2023-08-17T04:42:55;91890.19;;;17.58;84.22
63493;BME280;49638;47.526;10.028;2023-08-17T04:45:55;91900.28;;;17.66;84.42
63493;BME280;49638;47.526;10.028;2023-08-17T04:48:55;91907.97;;;17.78;84.44
63493;BME280;49638;47.526;10.028;2023-08-17T04:51:56;91907.09;;;17.82;84.24
63493;BME280;49638;47.526;10.028;2023-08-17T04:54:56;91905.47;;;17.86;83.90
63493;BME280;49638;47.526;10.028;2023-08-17T04:57:56;91902.44;;;17.93;83.58
63493;BME280;49638;47.526;10.028;2023-08-17T05:00:56;91907.47;;;18.00;83.88
63493;BME280;49638;47.526;10.028;2023-08-17T05:03:57;91909.34;;;18.23;83.26
63493;BME280;49638;47.526;10.028;2023-08-17T05:06:57;91901.28;;;18.52;82.52
63493;BME280;49638;47.526;10.028;2023-08-17T05:09:57;91890.41;;;18.86;81.30
63493;BME280;49638;47.526;10.028;2023-08-17T05:12:58;91895.84;;;19.19;80.58
63493;BME280;49638;47.526;10.028;2023-08-17T05:15:58;91909.34;;;19.47;79.59
63493;BME280;49638;47.526;10.028;2023-08-17T05:18:58;91892.75;;;19.64;79.60
63493;BME280;49638;47.526;10.028;2023-08-17T05:21:59;91885.63;;;19.87;79.64
63493;BME280;49638;47.526;10.028;2023-08-17T05:25:00;91887.16;;;20.06;79.48
63493;BME280;49638;47.526;10.028;2023-08-17T05:28:00;91893.06;;;20.22;78.95
63493;BME280;49638;47.526;10.028;2023-08-17T05:31:07;91894.84;;;20.41;78.37
63493;BME280;49638;47.526;10.028;2023-08-17T05:37:07;91895.66;;;20.83;77.90
63493;BME280;49638;47.526;10.028;2023-08-17T05:40:08;91894.69;;;21.01;77.44
63493;BME280;49638;47.526;10.028;2023-08-17T05:43:09;91903.41;;;21.20;77.05
63493;BME280;49638;47.526;10.028;2023-08-17T05:46:09;91904.69;;;21.37;76.80
63493;BME280;49638;47.526;10.028;2023-08-17T05:49:09;91897.47;;;21.46;76.10
63493;BME280;49638;47.526;10.028;2023-08-17T05:52:09;91905.84;;;21.67;75.48
63493;BME280;49638;47.526;10.028;2023-08-17T05:55:10;91906.41;;;21.78;74.98
63493;BME280;49638;47.526;10.028;2023-08-17T05:58:10;91907.75;;;21.89;74.45
63493;BME280;49638;47.526;10.028;2023-08-17T06:01:11;91912.88;;;21.99;73.91
63493;BME280;49638;47.526;10.028;2023-08-17T06:04:11;91898.19;;;22.05;73.76
63493;BME280;49638;47.526;10.028;2023-08-17T06:07:11;91904.31;;;22.19;73.22
63493;BME280;49638;47.526;10.028;2023-08-17T06:10:12;91907.22;;;22.32;72.80
63493;BME280;49638;47.526;10.028;2023-08-17T06:13:12;91899.78;;;22.37;72.75
63493;BME280;49638;47.526;10.028;2023-08-17T06:16:12;91903.59;;;22.45;72.43
63493;BME280;49638;47.526;10.028;2023-08-17T06:19:12;91913.28;;;22.46;72.19
63493;BME280;49638;47.526;10.028;2023-08-17T06:22:13;91902.53;;;22.46;71.94
63493;BME280;49638;47.526;10.028;2023-08-17T06:25:13;91906.19;;;22.50;71.83
63493;BME280;49638;47.526;10.028;2023-08-17T06:28:13;91904.78;;;22.61;71.33
63493;BME280;49638;47.526;10.028;2023-08-17T06:31:15;91902.75;;;22.67;71.48
63493;BME280;49638;47.526;10.028;2023-08-17T06:34:15;91910.06;;;22.75;71.33
63493;BME280;49638;47.526;10.028;2023-08-17T06:37:15;91909.25;;;22.75;70.83
63493;BME280;49638;47.526;10.028;2023-08-17T06:40:16;91905.94;;;22.78;71.19
63493;BME280;49638;47.526;10.028;2023-08-17T06:43:16;91903.88;;;22.75;70.87
63493;BME280;49638;47.526;10.028;2023-08-17T06:46:17;91918.16;;;22.84;70.87
63493;BME280;49638;47.526;10.028;2023-08-17T06:49:17;91912.28;;;22.82;70.68
63493;BME280;49638;47.526;10.028;2023-08-17T06:52:18;91915.16;;;22.85;70.64
63493;BME280;49638;47.526;10.028;2023-08-17T06:55:18;91910.31;;;22.96;70.40
63493;BME280;49638;47.526;10.028;2023-08-17T06:58:18;91913.19;;;23.08;70.45
63493;BME280;49638;47.526;10.028;2023-08-17T07:01:19;91904.63;;;23.06;69.64
63493;BME280;49638;47.526;10.028;2023-08-17T07:04:19;91908.09;;;23.16;69.36
63493;BME280;49638;47.526;10.028;2023-08-17T07:07:19;91909.88;;;23.29;68.80
63493;BME280;49638;47.526;10.028;2023-08-17T07:10:19;91916.84;;;23.38;68.28
63493;BME280;49638;47.526;10.028;2023-08-17T07:13:20;91907.19;;;23.46;67.85
63493;BME280;49638;47.526;10.028;2023-08-17T07:16:20;91918.59;;;23.60;67.32
63493;BME280;49638;47.526;10.028;2023-08-17T07:19:21;91917.50;;;23.70;67.07
63493;BME280;49638;47.526;10.028;2023-08-17T07:22:22;91923.88;;;23.83;67.09
63493;BME280;49638;47.526;10.028;2023-08-17T07:25:22;91916.41;;;23.80;67.01
63493;BME280;49638;47.526;10.028;2023-08-17T07:28:22;91928.97;;;23.84;66.53
63493;BME280;49638;47.526;10.028;2023-08-17T07:31:23;91923.88;;;23.92;66.23
63493;BME280;49638;47.526;10.028;2023-08-17T07:34:23;91927.03;;;24.02;65.94
63493;BME280;49638;47.526;10.028;2023-08-17T07:37:23;91929.09;;;24.05;65.78
63493;BME280;49638;47.526;10.028;2023-08-17T07:40:23;91937.00;;;24.11;66.15
63493;BME280;49638;47.526;10.028;2023-08-17T07:43:24;91925.56;;;24.14;65.70
63493;BME280;49638;47.526;10.028;2023-08-17T07:46:24;91918.88;;;24.20;65.62
63493;BME280;49638;47.526;10.028;2023-08-17T07:49:25;91922.22;;;24.17;65.74
63493;BME280;49638;47.526;10.028;2023-08-17T07:52:25;91927.75;;;24.29;65.80
63493;BME280;49638;47.526;10.028;2023-08-17T07:55:26;91923.94;;;24.30;65.32
63493;BME280;49638;47.526;10.028;2023-08-17T07:58:26;91926.94;;;24.37;65.20
63493;BME280;49638;47.526;10.028;2023-08-17T08:01:27;91933.16;;;24.46;64.94
63493;BME280;49638;47.526;10.028;2023-08-17T08:04:27;91928.69;;;24.50;64.80
63493;BME280;49638;47.526;10.028;2023-08-17T08:07:27;91936.91;;;24.63;64.50
63493;BME280;49638;47.526;10.028;2023-08-17T08:10:28;91927.03;;;24.67;64.34
63493;BME280;49638;47.526;10.028;2023-08-17T08:13:28;91937.47;;;24.77;64.31
63493;BME280;49638;47.526;10.028;2023-08-17T08:16:28;91937.13;;;24.87;64.12
63493;BME280;49638;47.526;10.028;2023-08-17T08:19:31;91929.72;;;24.96;63.92
63493;BME280;49638;47.526;10.028;2023-08-17T08:22:32;91928.25;;;25.08;63.80
63493;BME280;49638;47.526;10.028;2023-08-17T08:25:34;91919.81;;;25.18;63.40
63493;BME280;49638;47.526;10.028;2023-08-17T08:28:34;91924.81;;;25.28;63.21
63493;BME280;49638;47.526;10.028;2023-08-17T08:31:35;91925.63;;;25.29;63.13
63493;BME280;49638;47.526;10.028;2023-08-17T08:34:35;91915.28;;;25.31;63.00
63493;BME280;49638;47.526;10.028;2023-08-17T08:37:35;91920.34;;;25.32;63.03
63493;BME280;49638;47.526;10.028;2023-08-17T08:40:37;91927.97;;;25.30;62.89
63493;BME280;49638;47.526;10.028;2023-08-17T08:43:38;91926.41;;;25.29;62.91
63493;BME280;49638;47.526;10.028;2023-08-17T08:46:40;91929.59;;;25.31;62.68
63493;BME280;49638;47.526;10.028;2023-08-17T08:50:00;91908.97;;;25.18;60.10
63493;BME280;49638;47.526;10.028;2023-08-17T08:53:11;91916.44;;;25.21;61.91
63493;BME280;49638;47.526;10.028;2023-08-17T08:56:15;91928.38;;;25.20;62.26
63493;BME280;49638;47.526;10.028;2023-08-17T08:59:20;91929.31;;;25.24;62.55
63493;BME280;49638;47.526;10.028;2023-08-17T09:02:20;91918.03;;;25.22;62.15
63493;BME280;49638;47.526;10.028;2023-08-17T09:05:21;91921.66;;;25.26;61.82
63493;BME280;49638;47.526;10.028;2023-08-17T09:08:24;91909.13;;;25.21;61.86
63493;BME280;49638;47.526;10.028;2023-08-17T09:11:27;91918.66;;;25.19;62.01
63493;BME280;49638;47.526;10.028;2023-08-17T09:14:27;91906.59;;;25.16;62.04
63493;BME280;49638;47.526;10.028;2023-08-17T09:17:28;91931.69;;;25.25;62.26
63493;BME280;49638;47.526;10.028;2023-08-17T09:20:42;91924.97;;;25.32;60.86
63493;BME280;49638;47.526;10.028;2023-08-17T09:23:51;91922.13;;;25.28;61.07
63493;BME280;49638;47.526;10.028;2023-08-17T09:26:52;91921.13;;;25.33;62.36
63493;BME280;49638;47.526;10.028;2023-08-17T09:33:05;91929.84;;;25.38;62.04
63493;BME280;49638;47.526;10.028;2023-08-17T09:36:05;91928.84;;;25.43;61.95
63493;BME280;49638;47.526;10.028;2023-08-17T09:39:05;91927.84;;;25.47;61.22
63493;BME280;49638;47.526;10.028;2023-08-17T09:42:06;91922.91;;;25.49;61.40
63493;BME280;49638;47.526;10.028;2023-08-17T09:45:07;91923.41;;;25.52;60.90
63493;BME280;49638;47.526;10.028;2023-08-17T09:48:07;91937.63;;;25.61;60.46
63493;BME280;49638;47.526;10.028;2023-08-17T09:51:14;91937.63;;;25.61;58.12
63493;BME280;49638;47.526;10.028;2023-08-17T09:54:23;91923.31;;;25.60;57.04
63493;BME280;49638;47.526;10.028;2023-08-17T09:57:24;91931.69;;;25.67;58.90
63493;BME280;49638;47.526;10.028;2023-08-17T10:00:24;91926.41;;;25.71;58.94
63493;BME280;49638;47.526;10.028;2023-08-17T10:03:26;91926.41;;;25.71;59.31
63493;BME280;49638;47.526;10.028;2023-08-17T10:06:28;91911.69;;;25.60;60.18
63493;BME280;49638;47.526;10.028;2023-08-17T10:09:40;91925.97;;;25.69;61.07
63493;BME280;49638;47.526;10.028;2023-08-17T10:12:56;91931.56;;;25.64;59.47
63493;BME280;49638;47.526;10.028;2023-08-17T10:16:24;91915.59;;;25.50;60.92
63493;BME280;49638;47.526;10.028;2023-08-17T10:22:42;91915.00;;;25.44;60.31
63493;BME280;49638;47.526;10.028;2023-08-17T10:25:45;91912.19;;;25.41;62.00
63493;BME280;49638;47.526;10.028;2023-08-17T10:28:47;91910.03;;;25.46;62.14
63493;BME280;49638;47.526;10.028;2023-08-17T10:31:48;91902.28;;;25.45;62.60
63493;BME280;49638;47.526;10.028;2023-08-17T10:34:50;91915.47;;;25.46;62.56
63493;BME280;49638;47.526;10.028;2023-08-17T10:37:51;91910.25;;;25.41;63.09
63493;BME280;49638;47.526;10.028;2023-08-17T10:41:08;91920.44;;;25.44;61.62
63493;BME280;49638;47.526;10.028;2023-08-17T10:44:09;91909.66;;;25.36;62.89
63493;BME280;49638;47.526;10.028;2023-08-17T10:47:25;91908.88;;;25.35;61.27
63493;BME280;49638;47.526;10.028;2023-08-17T10:50:26;91913.81;;;25.33;62.72
63493;BME280;49638;47.526;10.028;2023-08-17T10:53:26;91906.81;;;25.32;62.20
63493;BME280;49638;47.526;10.028;2023-08-17T10:56:28;91888.75;;;25.24;61.99
63493;BME280;49638;47.526;10.028;2023-08-17T10:59:28;91897.78;;;25.28;61.21
63493;BME280;49638;47.526;10.028;2023-08-17T11:02:32;91902.41;;;25.28;60.22
63493;BME280;49638;47.526;10.028;2023-08-17T11:05:42;91905.41;;;25.26;61.09
63493;BME280;49638;47.526;10.028;2023-08-17T11:08:54;91902.25;;;25.24;60.98
63493;BME280;49638;47.526;10.028;2023-08-17T11:11:55;91893.06;;;25.16;61.86
63493;BME280;49638;47.526;10.028;2023-08-17T11:15:00;91902.31;;;25.15;61.72
63493;BME280;49638;47.526;10.028;2023-08-17T11:18:00;91884.66;;;25.09;61.52
63493;BME280;49638;47.526;10.028;2023-08-17T11:21:02;91892.28;;;25.16;61.97
63493;BME280;49638;47.526;10.028;2023-08-17T11:24:06;91890.03;;;25.18;62.48
63493;BME280;49638;47.526;10.028;2023-08-17T11:27:09;91888.13;;;25.18;62.51
63493;BME280;49638;47.526;10.028;2023-08-17T11:30:10;91894.03;;;25.20;62.39
63493;BME280;49638;47.526;10.028;2023-08-17T11:33:11;91886.72;;;25.12;62.11
63493;BME280;49638;47.526;10.028;2023-08-17T11:36:11;91888.00;;;25.15;62.17
63493;BME280;49638;47.526;10.028;2023-08-17T11:39:11;91885.94;;;25.12;62.22
63493;BME280;49638;47.526;10.028;2023-08-17T11:42:14;91902.13;;;25.20;62.34
63493;BME280;49638;47.526;10.028;2023-08-17T11:45:14;91894.81;;;25.21;62.08
63493;BME280;49638;47.526;10.028;2023-08-17T11:48:15;91886.88;;;25.16;62.02
63493;BME280;49638;47.526;10.028;2023-08-17T11:51:27;91887.91;;;25.23;61.62
63493;BME280;49638;47.526;10.028;2023-08-17T11:54:32;91884.91;;;25.25;60.11
63493;BME280;49638;47.526;10.028;2023-08-17T11:57:33;91889.97;;;25.27;61.18
63493;BME280;49638;47.526;10.028;2023-08-17T12:00:40;91880.94;;;25.22;57.43
63493;BME280;49638;47.526;10.028;2023-08-17T12:03:41;91880.63;;;25.24;59.65
63493;BME280;49638;47.526;10.028;2023-08-17T12:06:43;91887.63;;;25.25;59.00
63493;BME280;49638;47.526;10.028;2023-08-17T12:09:45;91882.66;;;25.27;58.91
63493;BME280;49638;47.526;10.028;2023-08-17T12:12:47;91877.91;;;25.24;59.07
63493;BME280;49638;47.526;10.028;2023-08-17T12:15:48;91879.94;;;25.27;59.46
63493;BME280;49638;47.526;10.028;2023-08-17T12:18:50;91870.25;;;25.26;59.25
63493;BME280;49638;47.526;10.028;2023-08-17T12:21:50;91854.22;;;25.21;59.68
63493;BME280;49638;47.526;10.028;2023-08-17T12:24:52;91862.00;;;25.22;59.60
63493;BME280;49638;47.526;10.028;2023-08-17T12:27:52;91864.41;;;25.24;59.46
63493;BME280;49638;47.526;10.028;2023-08-17T12:31:03;91862.91;;;25.27;57.94
63493;BME280;49638;47.526;10.028;2023-08-17T12:34:03;91874.22;;;25.29;59.57
63493;BME280;49638;47.526;10.028;2023-08-17T12:37:08;91875.00;;;25.29;59.10
63493;BME280;49638;47.526;10.028;2023-08-17T12:40:09;91876.59;;;25.30;59.46
63493;BME280;49638;47.526;10.028;2023-08-17T12:43:10;91893.56;;;25.39;59.64
63493;BME280;49638;47.526;10.028;2023-08-17T12:46:10;91889.94;;;25.35;59.33
63493;BME280;49638;47.526;10.028;2023-08-17T12:49:13;91889.44;;;25.33;59.10
63493;BME280;49638;47.526;10.028;2023-08-17T12:52:13;91893.56;;;25.39;58.51
63493;BME280;49638;47.526;10.028;2023-08-17T12:55:13;91900.13;;;25.51;57.73
63493;BME280;49638;47.526;10.028;2023-08-17T12:58:14;91904.72;;;25.59;57.27
63493;BME280;49638;47.526;10.028;2023-08-17T13:01:14;91893.53;;;25.60;56.98
63493;BME280;49638;47.526;10.028;2023-08-17T13:04:14;91892.22;;;25.66;57.03
63493;BME280;49638;47.526;10.028;2023-08-17T13:07:15;91892.16;;;25.75;57.31
63493;BME280;49638;47.526;10.028;2023-08-17T13:10:16;91901.84;;;25.76;57.54
63493;BME280;49638;47.526;10.028;2023-08-17T13:13:16;91918.41;;;25.75;57.23
63493;BME280;49638;47.526;10.028;2023-08-17T13:16:16;91928.66;;;25.69;56.79
63493;BME280;49638;47.526;10.028;2023-08-17T13:19:17;91932.09;;;25.57;56.84
63493;BME280;49638;47.526;10.028;2023-08-17T13:22:18;91929.91;;;25.51;56.79
63493;BME280;49638;47.526;10.028;2023-08-17T13:25:18;91937.91;;;25.47;56.89
63493;BME280;49638;47.526;10.028;2023-08-17T13:28:18;91934.53;;;25.50;57.32
63493;BME280;49638;47.526;10.028;2023-08-17T13:31:19;91935.53;;;25.45;57.47
63493;BME280;49638;47.526;10.028;2023-08-17T13:34:19;91928.06;;;25.42;57.82
63493;BME280;49638;47.526;10.028;2023-08-17T13:37:19;91918.75;;;25.31;57.96
63493;BME280;49638;47.526;10.028;2023-08-17T13:40:20;91924.44;;;25.38;58.13
63493;BME280;49638;47.526;10.028;2023-08-17T13:43:21;91910.50;;;25.28;58.32
63493;BME280;49638;47.526;10.028;2023-08-17T13:46:21;91899.09;;;25.22;58.53
63493;BME280;49638;47.526;10.028;2023-08-17T13:49:21;91909.38;;;25.29;58.93
63493;BME280;49638;47.526;10.028;2023-08-17T13:52:22;91909.25;;;25.25;59.28
63493;BME280;49638;47.526;10.028;2023-08-17T13:55:22;91910.81;;;25.26;59.36
63493;BME280;49638;47.526;10.028;2023-08-17T13:58:22;91906.28;;;25.18;59.54
63493;BME280;49638;47.526;10.028;2023-08-17T14:01:22;91905.16;;;25.19;59.91
63493;BME280;49638;47.526;10.028;2023-08-17T14:04:23;91916.63;;;25.16;60.40
63493;BME280;49638;47.526;10.028;2023-08-17T14:07:23;91907.25;;;25.13;60.33
63493;BME280;49638;47.526;10.028;2023-08-17T14:10:23;91917.88;;;25.10;60.78
63493;BME280;49638;47.526;10.028;2023-08-17T14:13:24;91918.53;;;25.07;61.11
63493;BME280;49638;47.526;10.028;2023-08-17T14:16:24;91912.84;;;24.99;61.09
63493;BME280;49638;47.526;10.028;2023-08-17T14:19:24;91921.78;;;25.00;61.55
63493;BME280;49638;47.526;10.028;2023-08-17T14:22:24;91928.44;;;25.02;61.65
63493;BME280;49638;47.526;10.028;2023-08-17T14:25:25;91928.78;;;25.01;62.06
63493;BME280;49638;47.526;10.028;2023-08-17T14:28:25;91936.09;;;25.00;61.85
63493;BME280;49638;47.526;10.028;2023-08-17T14:31:26;91932.13;;;24.98;62.05
63493;BME280;49638;47.526;10.028;2023-08-17T14:34:26;91918.47;;;24.94;62.45
63493;BME280;49638;47.526;10.028;2023-08-17T14:37:27;91925.28;;;25.00;62.50
63493;BME280;49638;47.526;10.028;2023-08-17T14:40:27;91920.81;;;25.05;62.36
63493;BME280;49638;47.526;10.028;2023-08-17T14:43:27;91927.31;;;25.12;62.48
63493;BME280;49638;47.526;10.028;2023-08-17T14:46:28;91917.28;;;25.13;62.22
63493;BME280;49638;47.526;10.028;2023-08-17T14:49:28;91927.72;;;25.23;62.14
63493;BME280;49638;47.526;10.028;2023-08-17T14:52:29;91931.34;;;25.27;61.99
63493;BME280;49638;47.526;10.028;2023-08-17T14:55:29;91931.16;;;25.32;61.99
63493;BME280;49638;47.526;10.028;2023-08-17T14:58:30;91929.50;;;25.40;62.08
63493;BME280;49638;47.526;10.028;2023-08-17T15:01:30;91937.09;;;25.46;62.17
63493;BME280;49638;47.526;10.028;2023-08-17T15:04:30;91931.81;;;25.50;61.81
63493;BME280;49638;47.526;10.028;2023-08-17T15:07:31;91916.13;;;25.43;61.94
63493;BME280;49638;47.526;10.028;2023-08-17T15:10:31;91932.31;;;25.52;61.69
63493;BME280;49638;47.526;10.028;2023-08-17T15:13:32;91923.53;;;25.55;61.60
63493;BME280;49638;47.526;10.028;2023-08-17T15:16:33;91911.34;;;25.40;61.06
63493;BME280;49638;47.526;10.028;2023-08-17T15:19:33;91921.53;;;25.43;60.85
63493;BME280;49638;47.526;10.028;2023-08-17T15:22:33;91926.94;;;25.43;60.86
63493;BME280;49638;47.526;10.028;2023-08-17T15:25:33;91915.00;;;25.44;60.70
63493;BME280;49638;47.526;10.028;2023-08-17T15:28:34;91916.78;;;25.40;60.57
63493;BME280;49638;47.526;10.028;2023-08-17T15:31:34;91912.97;;;25.41;60.76
63493;BME280;49638;47.526;10.028;2023-08-17T15:34:35;91905.03;;;25.36;60.43
63493;BME280;49638;47.526;10.028;2023-08-17T15:37:35;91905.03;;;25.36;60.33
63493;BME280;49638;47.526;10.028;2023-08-17T15:40:37;91902.44;;;25.40;60.40
63493;BME280;49638;47.526;10.028;2023-08-17T15:43:37;91899.63;;;25.36;60.10
63493;BME280;49638;47.526;10.028;2023-08-17T15:46:37;91883.50;;;25.19;60.35
63493;BME280;49638;47.526;10.028;2023-08-17T15:49:38;91907.53;;;25.20;60.40
63493;BME280;49638;47.526;10.028;2023-08-17T15:52:38;91906.72;;;25.20;60.42
63493;BME280;49638;47.526;10.028;2023-08-17T15:55:38;91908.84;;;25.14;60.49
63493;BME280;49638;47.526;10.028;2023-08-17T15:58:40;91913.13;;;25.07;60.17
63493;BME280;49638;47.526;10.028;2023-08-17T16:01:40;91919.22;;;25.04;60.04